sensor_id;sensor_type;location;lat;lon;timestamp;pressure;altitude;pressure_sealevel;temperature;humidity
77979;BME280;67169;50.268;8.694;2023-07-31T00:02:12;99444.53;;;16.68;70.64
77979;BME280;67169;50.268;8.694;2023-07-31T00:04:39;99430.16;;;16.53;70.94
77979;BME280;67169;50.268;8.694;2023-07-31T00:07:06;99444.28;;;16.58;71.45
77979;BME280;67169;50.268;8.694;2023-07-31T00:09:33;99449.69;;;16.58;71.78
77979;BME280;67169;50.268;8.694;2023-07-31T00:12:00;99450.88;;;16.54;72.31
77979;BME280;67169;50.268;8.694;2023-07-31T00:14:26;99446.97;;;16.46;73.12
77979;BME280;67169;50.268;8.694;2023-07-31T00:16:53;99459.00;;;16.42;73.51
77979;BME280;67169;50.268;8.694;2023-07-31T00:19:19;99455.50;;;16.40;73.72
77979;BME280;67169;50.268;8.694;2023-07-31T00:21:46;99449.63;;;16.33;74.14
77979;BME280;67169;50.268;8.694;2023-07-31T00:24:14;99448.69;;;16.20;74.88
77979;BME280;67169;50.268;8.694;2023-07-31T00:26:40;99442.34;;;16.06;75.78
77979;BME280;67169;50.268;8.694;2023-07-31T00:29:07;99458.03;;;16.16;75.71
77979;BME280;67169;50.268;8.694;2023-07-31T00:31:33;99440.81;;;16.02;76.32
77979;BME280;67169;50.268;8.694;2023-07-31T00:34:00;99454.47;;;16.01;76.91
77979;BME280;67169;50.268;8.694;2023-07-31T00:36:27;99452.84;;;15.98;77.29
77979;BME280;67169;50.268;8.694;2023-07-31T00:38:53;99429.69;;;15.93;78.12
77979;BME280;67169;50.268;8.694;2023-07-31T00:41:21;99434.34;;;15.90;78.38
77979;BME280;67169;50.268;8.694;2023-07-31T00:43:48;99417.22;;;15.76;79.06
77979;BME280;67169;50.268;8.694;2023-07-31T00:46:14;99433.09;;;15.82;79.87
77979;BME280;67169;50.268;8.694;2023-07-31T00:48:41;99428.72;;;15.79;80.15
77979;BME280;67169;50.268;8.694;2023-07-31T00:51:07;99434.78;;;15.70;80.62
77979;BME280;67169;50.268;8.694;2023-07-31T00:53:34;99437.50;;;15.70;80.92
77979;BME280;67169;50.268;8.694;2023-07-31T00:56:01;99434.97;;;15.67;81.54
77979;BME280;67169;50.268;8.694;2023-07-31T00:58:31;99426.22;;;15.62;81.49
77979;BME280;67169;50.268;8.694;2023-07-31T01:00:57;99436.09;;;15.63;81.56
77979;BME280;67169;50.268;8.694;2023-07-31T01:03:24;99429.03;;;15.60;82.17
77979;BME280;67169;50.268;8.694;2023-07-31T01:06:01;99429.72;;;15.64;81.74
77979;BME280;67169;50.268;8.694;2023-07-31T01:08:35;99425.66;;;15.57;82.09
77979;BME280;67169;50.268;8.694;2023-07-31T01:11:06;99418.78;;;15.51;82.96
77979;BME280;67169;50.268;8.694;2023-07-31T01:13:35;99417.91;;;15.51;82.59
77979;BME280;67169;50.268;8.694;2023-07-31T01:16:02;99420.91;;;15.60;82.51
77979;BME280;67169;50.268;8.694;2023-07-31T01:18:29;99409.09;;;15.47;82.78
77979;BME280;67169;50.268;8.694;2023-07-31T01:21:01;99404.47;;;15.49;82.45
77979;BME280;67169;50.268;8.694;2023-07-31T01:23:44;99393.63;;;15.49;82.05
77979;BME280;67169;50.268;8.694;2023-07-31T01:26:21;99416.84;;;15.53;81.92
77979;BME280;67169;50.268;8.694;2023-07-31T01:28:55;99407.22;;;15.62;81.74
77979;BME280;67169;50.268;8.694;2023-07-31T01:31:24;99351.06;;;15.23;81.74
77979;BME280;67169;50.268;8.694;2023-07-31T01:33:53;99407.34;;;15.60;81.05
77979;BME280;67169;50.268;8.694;2023-07-31T01:36:21;99408.13;;;15.62;81.39
77979;BME280;67169;50.268;8.694;2023-07-31T01:38:48;99408.84;;;15.66;81.36
77979;BME280;67169;50.268;8.694;2023-07-31T01:41:16;99408.13;;;15.62;81.47
77979;BME280;67169;50.268;8.694;2023-07-31T01:43:44;99395.72;;;15.58;81.17
77979;BME280;67169;50.268;8.694;2023-07-31T01:46:11;99399.03;;;15.63;81.58
77979;BME280;67169;50.268;8.694;2023-07-31T01:48:37;99398.03;;;15.64;81.17
77979;BME280;67169;50.268;8.694;2023-07-31T01:51:04;99366.09;;;15.55;81.18
77979;BME280;67169;50.268;8.694;2023-07-31T01:53:31;99385.78;;;15.73;80.74
77979;BME280;67169;50.268;8.694;2023-07-31T01:55:58;99377.06;;;15.68;80.79
77979;BME280;67169;50.268;8.694;2023-07-31T01:58:24;99379.47;;;15.73;80.56
77979;BME280;67169;50.268;8.694;2023-07-31T02:00:52;99375.78;;;15.74;80.84
77979;BME280;67169;50.268;8.694;2023-07-31T02:03:19;99376.97;;;15.70;80.99
77979;BME280;67169;50.268;8.694;2023-07-31T02:05:46;99376.00;;;15.71;80.79
77979;BME280;67169;50.268;8.694;2023-07-31T02:08:13;99360.84;;;15.81;80.69
77979;BME280;67169;50.268;8.694;2023-07-31T02:10:39;99350.09;;;15.65;80.46
77979;BME280;67169;50.268;8.694;2023-07-31T02:13:06;99368.41;;;15.76;80.12
77979;BME280;67169;50.268;8.694;2023-07-31T02:15:33;99374.41;;;15.81;79.47
77979;BME280;67169;50.268;8.694;2023-07-31T02:18:00;99376.63;;;15.88;79.02
77979;BME280;67169;50.268;8.694;2023-07-31T02:20:27;99381.72;;;15.93;78.34
77979;BME280;67169;50.268;8.694;2023-07-31T02:22:54;99370.28;;;16.02;77.79
77979;BME280;67169;50.268;8.694;2023-07-31T02:25:20;99369.88;;;16.08;77.25
77979;BME280;67169;50.268;8.694;2023-07-31T02:27:47;99363.59;;;16.08;77.01
77979;BME280;67169;50.268;8.694;2023-07-31T02:30:13;99363.66;;;16.06;77.45
77979;BME280;67169;50.268;8.694;2023-07-31T02:32:40;99364.84;;;16.02;77.85
77979;BME280;67169;50.268;8.694;2023-07-31T02:35:08;99367.56;;;16.02;78.03
77979;BME280;67169;50.268;8.694;2023-07-31T02:37:36;99364.19;;;15.99;78.05
77979;BME280;67169;50.268;8.694;2023-07-31T02:40:05;99376.28;;;16.07;77.38
77979;BME280;67169;50.268;8.694;2023-07-31T02:42:31;99370.19;;;16.04;78.00
77979;BME280;67169;50.268;8.694;2023-07-31T02:44:58;99363.13;;;16.01;77.89
77979;BME280;67169;50.268;8.694;2023-07-31T02:47:24;99360.59;;;15.98;77.68
77979;BME280;67169;50.268;8.694;2023-07-31T02:49:51;99369.81;;;15.96;78.35
77979;BME280;67169;50.268;8.694;2023-07-31T02:52:19;99363.63;;;15.94;78.41
77979;BME280;67169;50.268;8.694;2023-07-31T02:54:46;99366.81;;;16.00;78.58
77979;BME280;67169;50.268;8.694;2023-07-31T02:57:12;99357.56;;;16.03;77.81
77979;BME280;67169;50.268;8.694;2023-07-31T02:59:39;99364.84;;;16.02;78.01
77979;BME280;67169;50.268;8.694;2023-07-31T03:02:05;99348.31;;;15.93;78.16
77979;BME280;67169;50.268;8.694;2023-07-31T03:04:32;99355.97;;;16.00;78.28
77979;BME280;67169;50.268;8.694;2023-07-31T03:06:58;99357.69;;;16.01;78.13
77979;BME280;67169;50.268;8.694;2023-07-31T03:09:26;99349.75;;;15.98;78.11
77979;BME280;67169;50.268;8.694;2023-07-31T03:11:53;99365.97;;;16.12;77.35
77979;BME280;67169;50.268;8.694;2023-07-31T03:14:19;99363.38;;;16.11;77.68
77979;BME280;67169;50.268;8.694;2023-07-31T03:16:46;99365.09;;;16.12;78.07
77979;BME280;67169;50.268;8.694;2023-07-31T03:19:12;99369.56;;;16.13;78.23
77979;BME280;67169;50.268;8.694;2023-07-31T03:21:39;99364.25;;;16.11;78.27
77979;BME280;67169;50.268;8.694;2023-07-31T03:24:06;99350.09;;;16.06;77.80
77979;BME280;67169;50.268;8.694;2023-07-31T03:26:34;99369.47;;;16.14;78.35
77979;BME280;67169;50.268;8.694;2023-07-31T03:29:01;99369.47;;;16.14;78.05
77979;BME280;67169;50.268;8.694;2023-07-31T03:31:28;99366.97;;;16.11;78.23
77979;BME280;67169;50.268;8.694;2023-07-31T03:33:54;99355.66;;;16.05;77.94
77979;BME280;67169;50.268;8.694;2023-07-31T03:36:21;99364.31;;;16.10;77.71
77979;BME280;67169;50.268;8.694;2023-07-31T03:38:47;99373.25;;;16.12;77.79
77979;BME280;67169;50.268;8.694;2023-07-31T03:41:14;99362.72;;;16.07;77.90
77979;BME280;67169;50.268;8.694;2023-07-31T03:43:42;99366.63;;;16.16;77.82
77979;BME280;67169;50.268;8.694;2023-07-31T03:46:08;99367.69;;;16.13;77.57
77979;BME280;67169;50.268;8.694;2023-07-31T03:48:35;99367.69;;;16.13;77.50
77979;BME280;67169;50.268;8.694;2023-07-31T03:51:02;99361.13;;;16.18;77.19
77979;BME280;67169;50.268;8.694;2023-07-31T03:53:28;99365.78;;;16.16;76.96
77979;BME280;67169;50.268;8.694;2023-07-31T03:55:55;99354.59;;;16.20;77.03
77979;BME280;67169;50.268;8.694;2023-07-31T03:58:21;99360.03;;;16.20;77.05
77979;BME280;67169;50.268;8.694;2023-07-31T04:00:49;99348.81;;;16.12;76.79
77979;BME280;67169;50.268;8.694;2023-07-31T04:03:16;99346.91;;;16.14;76.97
77979;BME280;67169;50.268;8.694;2023-07-31T04:05:42;99352.19;;;16.16;76.86
77979;BME280;67169;50.268;8.694;2023-07-31T04:08:09;99350.28;;;16.18;77.01
77979;BME280;67169;50.268;8.694;2023-07-31T04:10:35;99346.00;;;16.13;77.21
77979;BME280;67169;50.268;8.694;2023-07-31T04:13:02;99346.13;;;16.12;77.48
77979;BME280;67169;50.268;8.694;2023-07-31T04:15:29;99346.97;;;16.12;77.24
77979;BME280;67169;50.268;8.694;2023-07-31T04:17:56;99347.97;;;16.11;77.48
77979;BME280;67169;50.268;8.694;2023-07-31T04:20:23;99350.56;;;16.13;77.85
77979;BME280;67169;50.268;8.694;2023-07-31T04:22:50;99346.97;;;16.12;77.67
77979;BME280;67169;50.268;8.694;2023-07-31T04:25:16;99346.00;;;16.13;78.11
77979;BME280;67169;50.268;8.694;2023-07-31T04:27:43;99346.00;;;16.13;78.15
77979;BME280;67169;50.268;8.694;2023-07-31T04:30:10;99340.38;;;16.17;78.06
77979;BME280;67169;50.268;8.694;2023-07-31T04:32:36;99342.59;;;16.24;77.74
77979;BME280;67169;50.268;8.694;2023-07-31T04:35:05;99340.41;;;16.29;77.91
77979;BME280;67169;50.268;8.694;2023-07-31T04:37:31;99341.94;;;16.33;77.85
77979;BME280;67169;50.268;8.694;2023-07-31T04:39:58;99344.56;;;16.35;77.84
77979;BME280;67169;50.268;8.694;2023-07-31T04:42:24;99342.91;;;16.32;78.08
77979;BME280;67169;50.268;8.694;2023-07-31T04:44:51;99337.06;;;16.38;77.99
77979;BME280;67169;50.268;8.694;2023-07-31T04:47:18;99312.72;;;16.24;78.15
77979;BME280;67169;50.268;8.694;2023-07-31T04:49:45;99334.44;;;16.37;78.39
77979;BME280;67169;50.268;8.694;2023-07-31T04:52:13;99335.44;;;16.36;78.41
77979;BME280;67169;50.268;8.694;2023-07-31T04:54:40;99331.66;;;16.38;78.21
77979;BME280;67169;50.268;8.694;2023-07-31T04:57:06;99325.44;;;16.36;77.76
77979;BME280;67169;50.268;8.694;2023-07-31T04:59:33;99329.78;;;16.39;77.86
77979;BME280;67169;50.268;8.694;2023-07-31T05:01:59;99328.06;;;16.38;77.69
77979;BME280;67169;50.268;8.694;2023-07-31T05:04:26;99343.25;;;16.41;77.36
77979;BME280;67169;50.268;8.694;2023-07-31T05:06:52;99333.25;;;16.41;77.63
77979;BME280;67169;50.268;8.694;2023-07-31T05:09:20;99324.16;;;16.42;77.33
77979;BME280;67169;50.268;8.694;2023-07-31T05:11:48;99330.78;;;16.51;77.07
77979;BME280;67169;50.268;8.694;2023-07-31T05:14:15;99327.66;;;16.57;76.85
77979;BME280;67169;50.268;8.694;2023-07-31T05:16:42;99335.47;;;16.61;76.52
77979;BME280;67169;50.268;8.694;2023-07-31T05:19:08;99342.31;;;16.67;76.60
77979;BME280;67169;50.268;8.694;2023-07-31T05:21:35;99332.66;;;16.63;76.34
77979;BME280;67169;50.268;8.694;2023-07-31T05:24:01;99341.34;;;16.68;76.51
77979;BME280;67169;50.268;8.694;2023-07-31T05:26:29;99334.69;;;16.72;76.32
77979;BME280;67169;50.268;8.694;2023-07-31T05:28:56;99330.31;;;16.84;75.75
77979;BME280;67169;50.268;8.694;2023-07-31T05:31:23;99334.53;;;16.88;75.85
77979;BME280;67169;50.268;8.694;2023-07-31T05:33:50;99330.81;;;16.89;75.11
77979;BME280;67169;50.268;8.694;2023-07-31T05:36:17;99339.19;;;16.86;75.27
77979;BME280;67169;50.268;8.694;2023-07-31T05:38:43;99332.69;;;16.89;75.05
77979;BME280;67169;50.268;8.694;2023-07-31T05:41:11;99350.06;;;16.86;74.36
77979;BME280;67169;50.268;8.694;2023-07-31T05:43:39;99339.00;;;16.76;74.35
77979;BME280;67169;50.268;8.694;2023-07-31T05:46:06;99328.00;;;16.78;74.15
77979;BME280;67169;50.268;8.694;2023-07-31T05:48:34;99319.22;;;16.74;74.29
77979;BME280;67169;50.268;8.694;2023-07-31T05:51:01;99326.81;;;16.82;73.91
77979;BME280;67169;50.268;8.694;2023-07-31T05:53:27;99327.03;;;16.79;73.88
77979;BME280;67169;50.268;8.694;2023-07-31T05:55:54;99324.44;;;16.77;74.16
77979;BME280;67169;50.268;8.694;2023-07-31T05:58:21;99321.38;;;16.82;74.21
77979;BME280;67169;50.268;8.694;2023-07-31T06:00:49;99322.47;;;16.92;73.90
77979;BME280;67169;50.268;8.694;2023-07-31T06:03:15;99317.03;;;16.92;73.23
77979;BME280;67169;50.268;8.694;2023-07-31T06:05:42;99315.31;;;16.91;73.37
77979;BME280;67169;50.268;8.694;2023-07-31T06:08:08;99320.94;;;16.88;72.68
77979;BME280;67169;50.268;8.694;2023-07-31T06:10:35;99313.13;;;16.83;72.97
77979;BME280;67169;50.268;8.694;2023-07-31T06:13:02;99308.66;;;16.82;72.98
77979;BME280;67169;50.268;8.694;2023-07-31T06:15:28;99301.63;;;16.80;72.83
77979;BME280;67169;50.268;8.694;2023-07-31T06:17:56;99312.28;;;16.83;73.11
77979;BME280;67169;50.268;8.694;2023-07-31T06:20:24;99312.59;;;16.78;72.90
77979;BME280;67169;50.268;8.694;2023-07-31T06:22:50;99301.72;;;16.78;72.82
77979;BME280;67169;50.268;8.694;2023-07-31T06:25:17;99301.41;;;16.83;72.67
77979;BME280;67169;50.268;8.694;2023-07-31T06:27:44;99306.50;;;16.88;72.77
77979;BME280;67169;50.268;8.694;2023-07-31T06:30:11;99312.38;;;16.94;72.37
77979;BME280;67169;50.268;8.694;2023-07-31T06:32:38;99311.59;;;16.92;72.53
77979;BME280;67169;50.268;8.694;2023-07-31T06:35:07;99318.44;;;16.98;72.12
77979;BME280;67169;50.268;8.694;2023-07-31T06:37:33;99318.66;;;17.07;72.37
77979;BME280;67169;50.268;8.694;2023-07-31T06:40:00;99319.97;;;17.15;72.08
77979;BME280;67169;50.268;8.694;2023-07-31T06:42:27;99305.72;;;17.11;72.24
77979;BME280;67169;50.268;8.694;2023-07-31T06:44:53;99305.72;;;17.11;72.28
77979;BME280;67169;50.268;8.694;2023-07-31T06:47:20;99233.47;;;16.70;72.05
77979;BME280;67169;50.268;8.694;2023-07-31T06:49:47;99298.22;;;17.02;72.54
77979;BME280;67169;50.268;8.694;2023-07-31T06:52:15;99306.38;;;17.02;72.22
77979;BME280;67169;50.268;8.694;2023-07-31T06:54:41;99309.75;;;17.05;72.04
77979;BME280;67169;50.268;8.694;2023-07-31T06:57:08;99309.75;;;17.05;72.29
77979;BME280;67169;50.268;8.694;2023-07-31T06:59:34;99303.97;;;17.10;72.24
77979;BME280;67169;50.268;8.694;2023-07-31T07:02:01;99302.31;;;17.20;72.15
77979;BME280;67169;50.268;8.694;2023-07-31T07:04:27;99303.50;;;17.29;71.57
77979;BME280;67169;50.268;8.694;2023-07-31T07:06:54;99321.09;;;17.36;71.16
77979;BME280;67169;50.268;8.694;2023-07-31T07:09:22;99325.81;;;17.58;70.70
77979;BME280;67169;50.268;8.694;2023-07-31T07:11:49;99312.31;;;17.69;70.74
77979;BME280;67169;50.268;8.694;2023-07-31T07:14:15;99301.06;;;17.74;70.46
77979;BME280;67169;50.268;8.694;2023-07-31T07:16:42;99287.34;;;17.88;70.06
77979;BME280;67169;50.268;8.694;2023-07-31T07:19:08;99281.78;;;17.90;69.97
77979;BME280;67169;50.268;8.694;2023-07-31T07:21:35;99280.97;;;18.00;69.13
77979;BME280;67169;50.268;8.694;2023-07-31T07:24:01;99277.28;;;17.77;69.32
77979;BME280;67169;50.268;8.694;2023-07-31T07:26:29;99266.84;;;17.95;69.66
77979;BME280;67169;50.268;8.694;2023-07-31T07:28:56;99267.81;;;17.94;69.23
77979;BME280;67169;50.268;8.694;2023-07-31T07:31:23;99256.31;;;17.91;69.07
77979;BME280;67169;50.268;8.694;2023-07-31T07:33:49;99260.44;;;17.96;68.99
77979;BME280;67169;50.268;8.694;2023-07-31T07:36:16;99267.03;;;17.81;69.37
77979;BME280;67169;50.268;8.694;2023-07-31T07:38:42;99270.28;;;17.86;69.81
77979;BME280;67169;50.268;8.694;2023-07-31T07:41:09;99268.66;;;17.84;69.84
77979;BME280;67169;50.268;8.694;2023-07-31T07:43:37;99276.59;;;17.87;70.01
77979;BME280;67169;50.268;8.694;2023-07-31T07:46:03;99269.16;;;17.89;69.47
77979;BME280;67169;50.268;8.694;2023-07-31T07:48:30;99272.41;;;17.94;70.08
77979;BME280;67169;50.268;8.694;2023-07-31T07:50:56;99268.31;;;17.99;69.18
77979;BME280;67169;50.268;8.694;2023-07-31T07:53:23;99259.69;;;18.06;69.56
77979;BME280;67169;50.268;8.694;2023-07-31T07:55:49;99263.44;;;18.16;69.04
77979;BME280;67169;50.268;8.694;2023-07-31T07:58:16;99266.16;;;18.16;69.17
77979;BME280;67169;50.268;8.694;2023-07-31T08:00:50;99272.47;;;18.16;68.87
77979;BME280;67169;50.268;8.694;2023-07-31T08:03:17;99262.38;;;18.30;68.54
77979;BME280;67169;50.268;8.694;2023-07-31T08:05:44;99267.47;;;18.34;68.21
77979;BME280;67169;50.268;8.694;2023-07-31T08:08:14;99264.38;;;18.39;68.42
77979;BME280;67169;50.268;8.694;2023-07-31T08:10:41;99264.13;;;18.31;68.19
77979;BME280;67169;50.268;8.694;2023-07-31T08:13:08;99258.03;;;18.27;68.68
77979;BME280;67169;50.268;8.694;2023-07-31T08:15:35;99265.38;;;18.38;68.07
77979;BME280;67169;50.268;8.694;2023-07-31T08:18:03;99272.47;;;18.52;67.95
77979;BME280;67169;50.268;8.694;2023-07-31T08:20:30;99267.13;;;18.61;68.36
77979;BME280;67169;50.268;8.694;2023-07-31T08:22:56;99242.13;;;18.56;67.02
77979;BME280;67169;50.268;8.694;2023-07-31T08:25:23;99248.50;;;18.79;67.03
77979;BME280;67169;50.268;8.694;2023-07-31T08:27:49;99252.47;;;18.97;66.71
77979;BME280;67169;50.268;8.694;2023-07-31T08:30:18;99243.53;;;19.18;65.62
77979;BME280;67169;50.268;8.694;2023-07-31T08:32:44;99241.50;;;19.42;65.78
77979;BME280;67169;50.268;8.694;2023-07-31T08:35:12;99238.63;;;19.44;65.35
77979;BME280;67169;50.268;8.694;2023-07-31T08:37:39;99238.78;;;19.42;64.67
77979;BME280;67169;50.268;8.694;2023-07-31T08:40:06;99239.22;;;19.70;64.46
77979;BME280;67169;50.268;8.694;2023-07-31T08:42:33;99226.19;;;19.74;63.97
77979;BME280;67169;50.268;8.694;2023-07-31T08:45:01;99219.13;;;19.71;64.42
77979;BME280;67169;50.268;8.694;2023-07-31T08:47:29;99215.78;;;19.67;64.09
77979;BME280;67169;50.268;8.694;2023-07-31T08:49:57;99229.13;;;19.82;64.35
77979;BME280;67169;50.268;8.694;2023-07-31T08:52:26;99222.50;;;19.63;63.89
77979;BME280;67169;50.268;8.694;2023-07-31T08:54:52;99217.84;;;19.32;64.30
77979;BME280;67169;50.268;8.694;2023-07-31T08:57:19;99245.50;;;19.27;63.72
77979;BME280;67169;50.268;8.694;2023-07-31T08:59:46;99245.50;;;19.16;64.39
77979;BME280;67169;50.268;8.694;2023-07-31T09:02:14;99243.56;;;19.07;65.33
77979;BME280;67169;50.268;8.694;2023-07-31T09:04:41;99242.31;;;19.11;65.33
77979;BME280;67169;50.268;8.694;2023-07-31T09:07:08;99246.66;;;19.13;65.27
77979;BME280;67169;50.268;8.694;2023-07-31T09:09:39;99237.22;;;19.17;65.12
77979;BME280;67169;50.268;8.694;2023-07-31T09:12:06;99221.09;;;19.26;64.90
77979;BME280;67169;50.268;8.694;2023-07-31T09:14:33;99207.31;;;19.38;64.68
77979;BME280;67169;50.268;8.694;2023-07-31T09:17:01;99213.91;;;19.25;64.31
77979;BME280;67169;50.268;8.694;2023-07-31T09:19:29;99213.28;;;19.21;64.52
77979;BME280;67169;50.268;8.694;2023-07-31T09:21:56;99214.91;;;19.12;65.15
77979;BME280;67169;50.268;8.694;2023-07-31T09:24:27;99217.50;;;19.03;65.80
77979;BME280;67169;50.268;8.694;2023-07-31T09:26:55;99231.03;;;19.04;66.20
77979;BME280;67169;50.268;8.694;2023-07-31T09:29:23;99217.53;;;18.91;68.44
77979;BME280;67169;50.268;8.694;2023-07-31T09:31:52;99208.34;;;18.01;73.06
77979;BME280;67169;50.268;8.694;2023-07-31T09:34:28;99226.66;;;17.51;77.54
77979;BME280;67169;50.268;8.694;2023-07-31T09:37:01;99191.47;;;17.13;80.13
77979;BME280;67169;50.268;8.694;2023-07-31T09:39:29;99222.38;;;17.36;80.67
77979;BME280;67169;50.268;8.694;2023-07-31T09:41:57;99224.28;;;17.46;78.67
77979;BME280;67169;50.268;8.694;2023-07-31T09:44:37;99224.69;;;17.53;79.15
77979;BME280;67169;50.268;8.694;2023-07-31T09:47:05;99230.31;;;17.63;78.12
77979;BME280;67169;50.268;8.694;2023-07-31T09:49:31;99224.56;;;17.54;78.19
77979;BME280;67169;50.268;8.694;2023-07-31T09:51:58;99221.84;;;17.54;79.15
77979;BME280;67169;50.268;8.694;2023-07-31T09:54:25;99213.78;;;17.66;78.89
77979;BME280;67169;50.268;8.694;2023-07-31T09:56:52;99211.69;;;17.93;78.54
77979;BME280;67169;50.268;8.694;2023-07-31T09:59:22;99203.19;;;18.09;79.52
77979;BME280;67169;50.268;8.694;2023-07-31T10:01:49;99199.41;;;18.34;77.40
77979;BME280;67169;50.268;8.694;2023-07-31T10:04:17;99192.34;;;18.54;75.26
77979;BME280;67169;50.268;8.694;2023-07-31T10:06:49;99182.97;;;18.69;73.81
77979;BME280;67169;50.268;8.694;2023-07-31T10:09:18;99194.00;;;18.90;73.29
77979;BME280;67169;50.268;8.694;2023-07-31T10:11:47;99179.63;;;18.88;71.03
77979;BME280;67169;50.268;8.694;2023-07-31T10:14:18;99183.78;;;19.26;69.86
77979;BME280;67169;50.268;8.694;2023-07-31T10:16:48;99180.75;;;19.40;70.08
77979;BME280;67169;50.268;8.694;2023-07-31T10:19:16;99183.22;;;19.43;68.53
77979;BME280;67169;50.268;8.694;2023-07-31T10:21:42;99170.78;;;19.62;67.83
77979;BME280;67169;50.268;8.694;2023-07-31T10:24:09;99168.16;;;19.60;67.60
77979;BME280;67169;50.268;8.694;2023-07-31T10:26:38;99163.09;;;19.67;67.38
77979;BME280;67169;50.268;8.694;2023-07-31T10:29:05;99167.78;;;19.76;66.64
77979;BME280;67169;50.268;8.694;2023-07-31T10:31:33;99160.78;;;19.83;65.01
77979;BME280;67169;50.268;8.694;2023-07-31T10:34:03;99140.34;;;19.78;64.86
77979;BME280;67169;50.268;8.694;2023-07-31T10:36:29;99145.41;;;19.82;63.94
77979;BME280;67169;50.268;8.694;2023-07-31T10:38:56;99145.25;;;19.63;66.52
77979;BME280;67169;50.268;8.694;2023-07-31T10:41:28;99138.72;;;19.43;66.43
77979;BME280;67169;50.268;8.694;2023-07-31T10:43:57;99143.41;;;19.52;67.03
77979;BME280;67169;50.268;8.694;2023-07-31T10:46:24;99129.75;;;19.63;65.30
77979;BME280;67169;50.268;8.694;2023-07-31T10:48:57;99133.31;;;19.75;65.95
77979;BME280;67169;50.268;8.694;2023-07-31T10:51:32;99157.03;;;19.84;63.78
77979;BME280;67169;50.268;8.694;2023-07-31T10:54:10;99146.34;;;19.92;64.17
77979;BME280;67169;50.268;8.694;2023-07-31T10:56:38;99138.44;;;19.89;63.97
77979;BME280;67169;50.268;8.694;2023-07-31T10:59:04;99139.06;;;19.82;65.33
77979;BME280;67169;50.268;8.694;2023-07-31T11:01:52;99137.16;;;19.94;63.37
77979;BME280;67169;50.268;8.694;2023-07-31T11:04:22;99134.09;;;20.08;63.59
77979;BME280;67169;50.268;8.694;2023-07-31T11:06:57;99133.63;;;20.24;63.19
77979;BME280;67169;50.268;8.694;2023-07-31T11:09:25;99130.38;;;20.39;62.45
77979;BME280;67169;50.268;8.694;2023-07-31T11:11:54;99132.09;;;20.61;62.31
77979;BME280;67169;50.268;8.694;2023-07-31T11:14:21;99125.41;;;20.85;60.61
77979;BME280;67169;50.268;8.694;2023-07-31T11:16:49;99108.03;;;21.05;59.73
77979;BME280;67169;50.268;8.694;2023-07-31T11:19:21;99113.59;;;21.35;58.76
77979;BME280;67169;50.268;8.694;2023-07-31T11:21:48;99105.53;;;21.62;58.23
77979;BME280;67169;50.268;8.694;2023-07-31T11:24:16;99083.06;;;21.68;57.93
77979;BME280;67169;50.268;8.694;2023-07-31T11:26:48;99108.66;;;21.96;57.56
77979;BME280;67169;50.268;8.694;2023-07-31T11:29:15;99099.72;;;21.85;55.26
77979;BME280;67169;50.268;8.694;2023-07-31T11:31:42;99109.25;;;21.80;55.00
77979;BME280;67169;50.268;8.694;2023-07-31T11:34:08;99104.63;;;21.91;54.43
77979;BME280;67169;50.268;8.694;2023-07-31T11:36:35;99109.22;;;22.00;53.88
77979;BME280;67169;50.268;8.694;2023-07-31T11:39:04;99090.91;;;22.00;53.46
77979;BME280;67169;50.268;8.694;2023-07-31T11:41:33;99096.00;;;21.66;53.88
77979;BME280;67169;50.268;8.694;2023-07-31T11:43:59;99098.47;;;21.69;55.09
77979;BME280;67169;50.268;8.694;2023-07-31T11:46:26;99092.25;;;21.77;55.01
77979;BME280;67169;50.268;8.694;2023-07-31T11:48:59;99080.31;;;21.68;55.00
77979;BME280;67169;50.268;8.694;2023-07-31T11:51:26;99083.91;;;21.78;55.08
77979;BME280;67169;50.268;8.694;2023-07-31T11:53:56;99080.31;;;21.68;55.42
77979;BME280;67169;50.268;8.694;2023-07-31T11:56:24;99071.97;;;21.50;55.35
77979;BME280;67169;50.268;8.694;2023-07-31T11:58:55;99083.06;;;21.59;55.12
77979;BME280;67169;50.268;8.694;2023-07-31T12:01:23;99098.06;;;21.54;54.80
77979;BME280;67169;50.268;8.694;2023-07-31T12:03:52;99089.97;;;21.63;55.33
77979;BME280;67169;50.268;8.694;2023-07-31T12:06:18;99069.50;;;21.57;54.89
77979;BME280;67169;50.268;8.694;2023-07-31T12:08:46;99066.47;;;21.70;55.75
77979;BME280;67169;50.268;8.694;2023-07-31T12:11:12;99066.63;;;21.68;55.28
77979;BME280;67169;50.268;8.694;2023-07-31T12:13:40;99057.69;;;21.76;55.26
77979;BME280;67169;50.268;8.694;2023-07-31T12:16:08;99064.19;;;21.75;54.65
77979;BME280;67169;50.268;8.694;2023-07-31T12:18:36;99050.63;;;21.73;54.63
77979;BME280;67169;50.268;8.694;2023-07-31T12:21:05;99050.44;;;21.85;54.07
77979;BME280;67169;50.268;8.694;2023-07-31T12:23:33;99037.75;;;21.93;53.65
77979;BME280;67169;50.268;8.694;2023-07-31T12:26:00;99047.84;;;22.02;54.19
77979;BME280;67169;50.268;8.694;2023-07-31T12:28:28;99067.66;;;22.14;54.04
77979;BME280;67169;50.268;8.694;2023-07-31T12:30:57;99055.22;;;21.92;53.29
77979;BME280;67169;50.268;8.694;2023-07-31T12:33:30;99042.69;;;21.70;53.55
77979;BME280;67169;50.268;8.694;2023-07-31T12:35:58;99043.25;;;21.84;54.22
77979;BME280;67169;50.268;8.694;2023-07-31T12:38:24;99053.72;;;22.08;53.83
77979;BME280;67169;50.268;8.694;2023-07-31T12:40:51;99030.84;;;22.36;52.87
77979;BME280;67169;50.268;8.694;2023-07-31T12:43:17;99032.84;;;22.71;52.26
77979;BME280;67169;50.268;8.694;2023-07-31T12:45:44;99007.59;;;23.13;51.81
77979;BME280;67169;50.268;8.694;2023-07-31T12:48:13;99020.81;;;23.00;51.64
77979;BME280;67169;50.268;8.694;2023-07-31T12:50:41;99022.53;;;23.01;51.94
77979;BME280;67169;50.268;8.694;2023-07-31T12:53:07;99017.66;;;22.95;51.87
77979;BME280;67169;50.268;8.694;2023-07-31T12:55:34;99007.13;;;23.00;51.60
77979;BME280;67169;50.268;8.694;2023-07-31T12:58:02;99006.13;;;22.91;51.64
77979;BME280;67169;50.268;8.694;2023-07-31T13:00:29;98991.53;;;22.73;52.07
77979;BME280;67169;50.268;8.694;2023-07-31T13:02:55;98998.19;;;22.70;52.41